sensor_id;sensor_type;location;lat;lon;timestamp;pressure;altitude;pressure_sealevel;temperature;humidity
6349;BME280;3207;42.648;23.406;2023-06-14T00:28:10;99552.06;;;20.20;nan
6349;BME280;3207;42.648;23.406;2023-06-14T00:52:40;99533.59;;;19.07;nan
6349;BME280;3207;42.648;23.406;2023-06-14T01:07:35;99585.78;;;19.52;nan
6349;BME280;3207;42.648;23.406;2023-06-14T03:27:57;99555.81;;;18.44;nan
6349;BME280;3207;42.648;23.406;2023-06-14T03:42:40;99570.34;;;18.48;nan
6349;BME280;3207;42.648;23.406;2023-06-14T03:52:28;99602.25;;;18.55;nan
6349;BME280;3207;42.648;23.406;2023-06-14T04:07:10;99593.97;;;18.66;nan
6349;BME280;3207;42.648;23.406;2023-06-14T04:46:35;99630.78;;;19.37;nan
6349;BME280;3207;42.648;23.406;2023-06-14T05:57:52;99627.53;;;21.48;nan
6349;BME280;3207;42.648;23.406;2023-06-14T06:00:20;99620.78;;;21.73;nan
6349;BME280;3207;42.648;23.406;2023-06-14T06:02:46;99632.94;;;21.82;nan
6349;BME280;3207;42.648;23.406;2023-06-14T06:05:14;99631.84;;;21.98;nan
6349;BME280;3207;42.648;23.406;2023-06-14T06:07:41;99624.78;;;22.12;nan
6349;BME280;3207;42.648;23.406;2023-06-14T06:10:10;99626.09;;;22.22;nan
6349;BME280;3207;42.648;23.406;2023-06-14T06:12:36;99639.44;;;22.29;nan
6349;BME280;3207;42.648;23.406;2023-06-14T06:17:33;99643.81;;;22.43;nan
6349;BME280;3207;42.648;23.406;2023-06-14T06:20:00;99646.66;;;22.35;nan
6349;BME280;3207;42.648;23.406;2023-06-14T06:22:27;99643.72;;;22.64;nan
6349;BME280;3207;42.648;23.406;2023-06-14T06:24:54;99643.00;;;22.84;nan
6349;BME280;3207;42.648;23.406;2023-06-14T06:27:21;99647.81;;;23.08;nan
6349;BME280;3207;42.648;23.406;2023-06-14T06:29:48;99654.81;;;23.16;nan
6349;BME280;3207;42.648;23.406;2023-06-14T06:32:16;99656.00;;;23.13;nan
6349;BME280;3207;42.648;23.406;2023-06-14T06:37:10;99658.06;;;23.05;nan
6349;BME280;3207;42.648;23.406;2023-06-14T06:39:37;99655.13;;;22.93;nan
6349;BME280;3207;42.648;23.406;2023-06-14T06:42:04;99660.13;;;23.09;nan
6349;BME280;3207;42.648;23.406;2023-06-14T06:44:32;99667.06;;;22.97;nan
6349;BME280;3207;42.648;23.406;2023-06-14T06:46:59;99668.75;;;23.18;nan
6349;BME280;3207;42.648;23.406;2023-06-14T06:52:01;99706.06;;;23.11;nan
6349;BME280;3207;42.648;23.406;2023-06-14T06:54:29;99665.06;;;23.19;nan
6349;BME280;3207;42.648;23.406;2023-06-14T06:56:56;99708.56;;;23.26;nan
6349;BME280;3207;42.648;23.406;2023-06-14T06:59:23;99667.84;;;23.52;nan
6349;BME280;3207;42.648;23.406;2023-06-14T07:01:50;99675.84;;;23.52;nan
6349;BME280;3207;42.648;23.406;2023-06-14T07:04:16;99683.94;;;23.17;nan
6349;BME280;3207;42.648;23.406;2023-06-14T07:09:12;99681.84;;;23.13;nan
6349;BME280;3207;42.648;23.406;2023-06-14T07:11:40;99684.78;;;23.24;nan
6349;BME280;3207;42.648;23.406;2023-06-14T07:14:07;99682.66;;;23.07;nan
6349;BME280;3207;42.648;23.406;2023-06-14T07:16:34;99687.13;;;22.93;nan
6349;BME280;3207;42.648;23.406;2023-06-14T07:21:28;99692.53;;;23.06;nan
6349;BME280;3207;42.648;23.406;2023-06-14T07:26:23;99688.84;;;23.07;nan
6349;BME280;3207;42.648;23.406;2023-06-14T07:28:50;99683.94;;;23.17;nan
6349;BME280;3207;42.648;23.406;2023-06-14T07:31:18;99690.13;;;23.31;nan
6349;BME280;3207;42.648;23.406;2023-06-14T07:33:45;99682.75;;;23.40;nan
6349;BME280;3207;42.648;23.406;2023-06-14T07:36:12;99684.00;;;23.44;nan
6349;BME280;3207;42.648;23.406;2023-06-14T07:38:38;99706.63;;;23.54;nan
6349;BME280;3207;42.648;23.406;2023-06-14T07:41:07;99678.31;;;23.60;nan
6349;BME280;3207;42.648;23.406;2023-06-14T07:43:34;99677.47;;;23.66;nan
6349;BME280;3207;42.648;23.406;2023-06-14T07:46:01;99673.78;;;23.67;nan
6349;BME280;3207;42.648;23.406;2023-06-14T07:48:28;99676.69;;;23.72;nan
6349;BME280;3207;42.648;23.406;2023-06-14T07:50:55;99673.38;;;23.77;nan
6349;BME280;3207;42.648;23.406;2023-06-14T07:53:22;99678.31;;;23.80;nan
6349;BME280;3207;42.648;23.406;2023-06-14T07:55:48;99673.38;;;23.96;nan
6349;BME280;3207;42.648;23.406;2023-06-14T07:58:17;99667.00;;;23.97;nan
6349;BME280;3207;42.648;23.406;2023-06-14T08:00:44;99672.38;;;24.04;nan
6349;BME280;3207;42.648;23.406;2023-06-14T08:05:38;99679.53;;;24.43;nan
6349;BME280;3207;42.648;23.406;2023-06-14T08:08:05;99677.84;;;24.55;nan
6349;BME280;3207;42.648;23.406;2023-06-14T08:10:32;99673.69;;;24.66;nan
6349;BME280;3207;42.648;23.406;2023-06-14T08:15:26;99685.94;;;25.00;nan
6349;BME280;3207;42.648;23.406;2023-06-14T08:17:53;99713.44;;;25.13;nan
6349;BME280;3207;42.648;23.406;2023-06-14T08:20:20;99671.19;;;25.22;nan
6349;BME280;3207;42.648;23.406;2023-06-14T08:22:47;99672.78;;;25.36;nan
6349;BME280;3207;42.648;23.406;2023-06-14T08:25:14;99676.66;;;25.40;nan
6349;BME280;3207;42.648;23.406;2023-06-14T08:27:40;99674.75;;;25.16;nan
6349;BME280;3207;42.648;23.406;2023-06-14T08:30:08;99660.75;;;25.14;nan
6349;BME280;3207;42.648;23.406;2023-06-14T08:32:36;99666.31;;;25.50;nan
6349;BME280;3207;42.648;23.406;2023-06-14T08:35:07;99661.44;;;25.34;nan
6349;BME280;3207;42.648;23.406;2023-06-14T08:40:11;99666.19;;;25.70;nan
6349;BME280;3207;42.648;23.406;2023-06-14T08:42:42;99674.09;;;26.08;nan
6349;BME280;3207;42.648;23.406;2023-06-14T08:45:09;99678.50;;;26.21;nan
6349;BME280;3207;42.648;23.406;2023-06-14T08:47:41;99682.66;;;26.17;nan
6349;BME280;3207;42.648;23.406;2023-06-14T08:50:08;99670.53;;;26.14;nan
6349;BME280;3207;42.648;23.406;2023-06-14T08:52:38;99692.94;;;26.20;nan
6349;BME280;3207;42.648;23.406;2023-06-14T08:55:11;99658.72;;;26.22;nan
6349;BME280;3207;42.648;23.406;2023-06-14T08:57:39;99679.34;;;26.21;nan
6349;BME280;3207;42.648;23.406;2023-06-14T09:00:07;99688.31;;;26.34;nan
6349;BME280;3207;42.648;23.406;2023-06-14T09:02:39;99682.00;;;26.21;nan
6349;BME280;3207;42.648;23.406;2023-06-14T09:05:09;99688.31;;;26.34;nan
6349;BME280;3207;42.648;23.406;2023-06-14T09:07:39;99677.25;;;26.23;nan
6349;BME280;3207;42.648;23.406;2023-06-14T09:10:08;99683.88;;;26.46;nan
6349;BME280;3207;42.648;23.406;2023-06-14T09:12:36;99671.19;;;26.53;nan
6349;BME280;3207;42.648;23.406;2023-06-14T09:15:04;99680.22;;;26.58;nan
6349;BME280;3207;42.648;23.406;2023-06-14T09:17:32;99675.69;;;26.59;nan
6349;BME280;3207;42.648;23.406;2023-06-14T09:20:02;99665.69;;;26.66;nan
6349;BME280;3207;42.648;23.406;2023-06-14T09:22:32;99668.66;;;26.94;nan
6349;BME280;3207;42.648;23.406;2023-06-14T09:24:58;99684.31;;;26.98;nan
6349;BME280;3207;42.648;23.406;2023-06-14T09:27:25;99683.19;;;26.87;nan
6349;BME280;3207;42.648;23.406;2023-06-14T09:29:53;99680.28;;;26.88;nan
6349;BME280;3207;42.648;23.406;2023-06-14T09:32:20;99674.53;;;27.03;nan
6349;BME280;3207;42.648;23.406;2023-06-14T09:34:47;99668.91;;;27.23;nan
6349;BME280;3207;42.648;23.406;2023-06-14T09:37:26;99672.59;;;27.40;nan
6349;BME280;3207;42.648;23.406;2023-06-14T09:39:53;99678.91;;;27.46;nan
6349;BME280;3207;42.648;23.406;2023-06-14T09:42:20;99674.56;;;27.75;nan
6349;BME280;3207;42.648;23.406;2023-06-14T09:44:49;99699.22;;;27.83;nan
6349;BME280;3207;42.648;23.406;2023-06-14T09:47:16;99673.28;;;27.77;nan
6349;BME280;3207;42.648;23.406;2023-06-14T09:49:43;99681.06;;;27.55;nan
6349;BME280;3207;42.648;23.406;2023-06-14T09:52:12;99680.69;;;27.52;nan
6349;BME280;3207;42.648;23.406;2023-06-14T09:57:10;99678.50;;;27.60;nan
6349;BME280;3207;42.648;23.406;2023-06-14T09:59:40;99690.91;;;27.61;nan
6349;BME280;3207;42.648;23.406;2023-06-14T10:02:11;99676.16;;;27.22;nan
6349;BME280;3207;42.648;23.406;2023-06-14T10:04:44;99694.69;;;27.24;nan
6349;BME280;3207;42.648;23.406;2023-06-14T10:07:14;99687.13;;;27.21;nan
6349;BME280;3207;42.648;23.406;2023-06-14T10:09:46;99685.06;;;26.86;nan
6349;BME280;3207;42.648;23.406;2023-06-14T10:12:16;99681.41;;;26.99;nan
6349;BME280;3207;42.648;23.406;2023-06-14T10:14:48;99698.75;;;27.15;nan
6349;BME280;3207;42.648;23.406;2023-06-14T10:17:22;99676.69;;;27.43;nan
6349;BME280;3207;42.648;23.406;2023-06-14T10:19:55;99682.50;;;27.69;nan
6349;BME280;3207;42.648;23.406;2023-06-14T10:22:27;99663.84;;;27.86;nan
6349;BME280;3207;42.648;23.406;2023-06-14T10:24:57;99664.41;;;28.00;nan
6349;BME280;3207;42.648;23.406;2023-06-14T10:27:24;99671.78;;;28.39;nan
6349;BME280;3207;42.648;23.406;2023-06-14T10:30:07;99674.09;;;28.71;nan
6349;BME280;3207;42.648;23.406;2023-06-14T10:32:34;99672.28;;;29.00;nan
6349;BME280;3207;42.648;23.406;2023-06-14T10:35:05;99674.59;;;29.08;nan
6349;BME280;3207;42.648;23.406;2023-06-14T10:37:32;99669.00;;;28.98;nan
6349;BME280;3207;42.648;23.406;2023-06-14T10:40:01;99674.91;;;28.83;nan
6349;BME280;3207;42.648;23.406;2023-06-14T10:42:31;99683.47;;;28.80;nan
6349;BME280;3207;42.648;23.406;2023-06-14T10:44:59;99663.41;;;28.88;nan
6349;BME280;3207;42.648;23.406;2023-06-14T10:47:27;99666.34;;;28.86;nan
6349;BME280;3207;42.648;23.406;2023-06-14T10:49:55;99664.13;;;28.71;nan
6349;BME280;3207;42.648;23.406;2023-06-14T10:55:05;99670.31;;;28.72;nan
6349;BME280;3207;42.648;23.406;2023-06-14T10:57:35;99667.53;;;28.67;nan
6349;BME280;3207;42.648;23.406;2023-06-14T11:00:03;99701.94;;;28.65;nan
6349;BME280;3207;42.648;23.406;2023-06-14T11:05:50;99659.97;;;28.40;nan
6349;BME280;3207;42.648;23.406;2023-06-14T11:11:22;99652.28;;;28.44;nan
6349;BME280;3207;42.648;23.406;2023-06-14T11:13:49;99655.81;;;28.73;nan
6349;BME280;3207;42.648;23.406;2023-06-14T11:16:18;99651.59;;;28.77;nan
6349;BME280;3207;42.648;23.406;2023-06-14T11:18:45;99651.06;;;29.03;nan
6349;BME280;3207;42.648;23.406;2023-06-14T11:21:15;99646.75;;;29.02;nan
6349;BME280;3207;42.648;23.406;2023-06-14T11:23:49;99670.03;;;29.25;nan
6349;BME280;3207;42.648;23.406;2023-06-14T11:26:16;99640.41;;;29.37;nan
6349;BME280;3207;42.648;23.406;2023-06-14T11:28:55;99644.72;;;29.09;nan
6349;BME280;3207;42.648;23.406;2023-06-14T11:31:22;99643.44;;;29.12;nan
6349;BME280;3207;42.648;23.406;2023-06-14T11:33:49;99669.16;;;28.91;nan
6349;BME280;3207;42.648;23.406;2023-06-14T11:36:17;99641.16;;;29.21;nan
6349;BME280;3207;42.648;23.406;2023-06-14T11:38:43;99638.25;;;29.22;nan
6349;BME280;3207;42.648;23.406;2023-06-14T11:41:10;99637.06;;;29.18;nan
6349;BME280;3207;42.648;23.406;2023-06-14T11:43:37;99624.31;;;29.13;nan
6349;BME280;3207;42.648;23.406;2023-06-14T11:46:12;99620.06;;;29.01;nan
6349;BME280;3207;42.648;23.406;2023-06-14T11:48:41;99631.16;;;29.04;nan
6349;BME280;3207;42.648;23.406;2023-06-14T11:51:08;99622.38;;;29.26;nan
6349;BME280;3207;42.648;23.406;2023-06-14T11:53:35;99584.97;;;28.96;nan
6349;BME280;3207;42.648;23.406;2023-06-14T11:56:02;99621.63;;;29.42;nan
6349;BME280;3207;42.648;23.406;2023-06-14T11:58:29;99621.44;;;29.32;nan
6349;BME280;3207;42.648;23.406;2023-06-14T12:00:56;99612.97;;;29.40;nan
6349;BME280;3207;42.648;23.406;2023-06-14T12:03:25;99611.19;;;29.45;nan
6349;BME280;3207;42.648;23.406;2023-06-14T12:06:02;99612.97;;;29.40;nan
6349;BME280;3207;42.648;23.406;2023-06-14T12:08:33;99601.56;;;29.49;nan
6349;BME280;3207;42.648;23.406;2023-06-14T12:11:04;99620.16;;;29.68;nan
6349;BME280;3207;42.648;23.406;2023-06-14T12:13:31;99632.50;;;29.80;nan
6349;BME280;3207;42.648;23.406;2023-06-14T12:15:58;99635.94;;;29.76;nan
6349;BME280;3207;42.648;23.406;2023-06-14T12:18:33;99634.41;;;29.35;nan
6349;BME280;3207;42.648;23.406;2023-06-14T12:21:01;99609.31;;;29.01;nan
6349;BME280;3207;42.648;23.406;2023-06-14T12:23:39;99610.94;;;29.02;nan
6349;BME280;3207;42.648;23.406;2023-06-14T12:26:06;99625.63;;;28.83;nan
6349;BME280;3207;42.648;23.406;2023-06-14T12:28:33;99624.69;;;28.77;nan
6349;BME280;3207;42.648;23.406;2023-06-14T12:31:00;99607.06;;;28.81;nan
6349;BME280;3207;42.648;23.406;2023-06-14T12:33:26;99593.22;;;28.89;nan
6349;BME280;3207;42.648;23.406;2023-06-14T12:35:56;99606.41;;;29.19;nan
6349;BME280;3207;42.648;23.406;2023-06-14T12:38:24;99620.91;;;29.18;nan
6349;BME280;3207;42.648;23.406;2023-06-14T12:40:51;99604.59;;;29.53;nan
6349;BME280;3207;42.648;23.406;2023-06-14T12:43:18;99612.31;;;29.33;nan
6349;BME280;3207;42.648;23.406;2023-06-14T12:45:45;99607.03;;;29.09;nan
6349;BME280;3207;42.648;23.406;2023-06-14T12:48:11;99606.78;;;28.83;nan
6349;BME280;3207;42.648;23.406;2023-06-14T12:50:38;99603.78;;;28.67;nan
6349;BME280;3207;42.648;23.406;2023-06-14T12:53:07;99603.91;;;28.61;nan
6349;BME280;3207;42.648;23.406;2023-06-14T12:55:33;99611.91;;;28.56;nan
6349;BME280;3207;42.648;23.406;2023-06-14T12:58:00;99596.72;;;28.50;nan
6349;BME280;3207;42.648;23.406;2023-06-14T13:00:27;99601.13;;;28.56;nan
6349;BME280;3207;42.648;23.406;2023-06-14T13:02:55;99610.16;;;28.50;nan
6349;BME280;3207;42.648;23.406;2023-06-14T13:05:22;99597.88;;;28.54;nan
6349;BME280;3207;42.648;23.406;2023-06-14T13:07:49;99610.25;;;28.55;nan
6349;BME280;3207;42.648;23.406;2023-06-14T13:10:18;99594.25;;;28.48;nan
6349;BME280;3207;42.648;23.406;2023-06-14T13:12:45;99608.19;;;28.33;nan
6349;BME280;3207;42.648;23.406;2023-06-14T13:15:11;99590.56;;;28.26;nan
6349;BME280;3207;42.648;23.406;2023-06-14T13:17:38;99577.81;;;28.21;nan
6349;BME280;3207;42.648;23.406;2023-06-14T13:20:06;99606.69;;;28.26;nan
6349;BME280;3207;42.648;23.406;2023-06-14T13:22:33;99580.69;;;28.43;nan
6349;BME280;3207;42.648;23.406;2023-06-14T13:25:01;99591.25;;;28.73;nan
6349;BME280;3207;42.648;23.406;2023-06-14T13:27:30;99590.16;;;28.57;nan
6349;BME280;3207;42.648;23.406;2023-06-14T13:29:57;99590.84;;;28.53;nan
6349;BME280;3207;42.648;23.406;2023-06-14T13:32:24;99586.44;;;28.47;nan
6349;BME280;3207;42.648;23.406;2023-06-14T13:34:51;99579.44;;;28.34;nan
6349;BME280;3207;42.648;23.406;2023-06-14T13:37:18;99571.38;;;28.11;nan
6349;BME280;3207;42.648;23.406;2023-06-14T13:39:44;99603.41;;;28.00;nan
6349;BME280;3207;42.648;23.406;2023-06-14T13:42:11;99559.34;;;28.13;nan
6349;BME280;3207;42.648;23.406;2023-06-14T13:44:39;99579.09;;;28.19;nan
6349;BME280;3207;42.648;23.406;2023-06-14T13:47:06;99581.56;;;28.20;nan
6349;BME280;3207;42.648;23.406;2023-06-14T13:49:33;99579.47;;;27.99;nan
6349;BME280;3207;42.648;23.406;2023-06-14T13:52:01;99572.22;;;27.88;nan
6349;BME280;3207;42.648;23.406;2023-06-14T13:54:28;99577.28;;;27.84;nan
6349;BME280;3207;42.648;23.406;2023-06-14T13:56:54;99565.56;;;27.79;nan
6349;BME280;3207;42.648;23.406;2023-06-14T13:59:21;99581.59;;;27.74;nan
6349;BME280;3207;42.648;23.406;2023-06-14T14:01:50;99582.50;;;27.67;nan
6349;BME280;3207;42.648;23.406;2023-06-14T14:04:17;99570.03;;;27.73;nan
6349;BME280;3207;42.648;23.406;2023-06-14T14:06:43;99573.31;;;27.75;nan
6349;BME280;3207;42.648;23.406;2023-06-14T14:09:10;99588.94;;;27.78;nan
6349;BME280;3207;42.648;23.406;2023-06-14T14:11:38;99556.69;;;27.90;nan
6349;BME280;3207;42.648;23.406;2023-06-14T14:14:07;99561.22;;;28.01;nan
6349;BME280;3207;42.648;23.406;2023-06-14T14:16:33;99550.94;;;27.98;nan
6349;BME280;3207;42.648;23.406;2023-06-14T14:19:03;99562.50;;;27.98;nan
6349;BME280;3207;42.648;23.406;2023-06-14T14:21:31;99560.88;;;27.97;nan
6349;BME280;3207;42.648;23.406;2023-06-14T14:23:58;99565.94;;;27.94;nan
6349;BME280;3207;42.648;23.406;2023-06-14T14:26:25;99564.75;;;27.90;nan
6349;BME280;3207;42.648;23.406;2023-06-14T14:28:52;99568.72;;;27.87;nan
6349;BME280;3207;42.648;23.406;2023-06-14T14:31:19;99595.94;;;28.02;nan
6349;BME280;3207;42.648;23.406;2023-06-14T14:33:45;99569.28;;;28.01;nan
6349;BME280;3207;42.648;23.406;2023-06-14T14:36:14;99557.63;;;28.07;nan
6349;BME280;3207;42.648;23.406;2023-06-14T14:38:41;99567.78;;;28.05;nan
6349;BME280;3207;42.648;23.406;2023-06-14T14:41:10;99564.66;;;27.96;nan
6349;BME280;3207;42.648;23.406;2023-06-14T14:43:37;99578.91;;;27.85;nan
6349;BME280;3207;42.648;23.406;2023-06-14T14:46:04;99581.69;;;27.67;nan
6349;BME280;3207;42.648;23.406;2023-06-14T14:48:34;99579.22;;;27.65;nan
6349;BME280;3207;42.648;23.406;2023-06-14T14:51:00;99589.72;;;27.55;nan
6349;BME280;3207;42.648;23.406;2023-06-14T14:53:29;99573.75;;;27.60;nan
6349;BME280;3207;42.648;23.406;2023-06-14T14:55:55;99570.78;;;27.50;nan
6349;BME280;3207;42.648;23.406;2023-06-14T14:58:22;99563.34;;;27.52;nan
6349;BME280;3207;42.648;23.406;2023-06-14T15:00:49;99567.34;;;27.61;nan
6349;BME280;3207;42.648;23.406;2023-06-14T15:03:16;99574.22;;;27.57;nan
6349;BME280;3207;42.648;23.406;2023-06-14T15:05:43;99575.63;;;27.60;nan
6349;BME280;3207;42.648;23.406;2023-06-14T15:08:10;99589.28;;;27.70;nan
6349;BME280;3207;42.648;23.406;2023-06-14T15:10:39;99578.78;;;27.68;nan
6349;BME280;3207;42.648;23.406;2023-06-14T15:13:07;99577.94;;;27.68;nan
6349;BME280;3207;42.648;23.406;2023-06-14T15:15:34;99568.63;;;27.71;nan
6349;BME280;3207;42.648;23.406;2023-06-14T15:18:01;99586.84;;;27.68;nan
6349;BME280;3207;42.648;23.406;2023-06-14T15:20:29;99553.03;;;27.49;nan
6349;BME280;3207;42.648;23.406;2023-06-14T15:22:56;99612.69;;;27.40;nan
6349;BME280;3207;42.648;23.406;2023-06-14T15:25:25;99605.91;;;27.37;nan
6349;BME280;3207;42.648;23.406;2023-06-14T15:27:53;99589.00;;;27.48;nan
6349;BME280;3207;42.648;23.406;2023-06-14T15:30:20;99606.50;;;27.39;nan
6349;BME280;3207;42.648;23.406;2023-06-14T15:32:48;99587.13;;;27.37;nan
6349;BME280;3207;42.648;23.406;2023-06-14T15:35:17;99572.53;;;27.45;nan
6349;BME280;3207;42.648;23.406;2023-06-14T15:37:44;99574.28;;;27.39;nan
6349;BME280;3207;42.648;23.406;2023-06-14T15:40:12;99570.91;;;27.32;nan
6349;BME280;3207;42.648;23.406;2023-06-14T15:42:38;99585.69;;;27.23;nan
6349;BME280;3207;42.648;23.406;2023-06-14T15:45:07;99585.91;;;27.10;nan
6349;BME280;3207;42.648;23.406;2023-06-14T15:47:34;99597.34;;;27.17;nan
6349;BME280;3207;42.648;23.406;2023-06-14T15:50:01;99588.00;;;27.08;nan
6349;BME280;3207;42.648;23.406;2023-06-14T15:52:30;99598.00;;;27.01;nan
6349;BME280;3207;42.648;23.406;2023-06-14T15:54:57;99585.72;;;26.93;nan
6349;BME280;3207;42.648;23.406;2023-06-14T15:57:24;99593.53;;;26.94;nan
6349;BME280;3207;42.648;23.406;2023-06-14T15:59:51;99581.91;;;27.01;nan
6349;BME280;3207;42.648;23.406;2023-06-14T16:02:19;99590.22;;;27.11;nan
6349;BME280;3207;42.648;23.406;2023-06-14T16:04:46;99594.19;;;27.08;nan
6349;BME280;3207;42.648;23.406;2023-06-14T16:07:13;99574.69;;;27.13;nan
6349;BME280;3207;42.648;23.406;2023-06-14T16:09:40;99599.16;;;27.05;nan
6349;BME280;3207;42.648;23.406;2023-06-14T16:12:08;99601.19;;;27.09;nan
6349;BME280;3207;42.648;23.406;2023-06-14T16:14:35;99597.75;;;27.02;nan
6349;BME280;3207;42.648;23.406;2023-06-14T16:17:02;99596.88;;;26.90;nan
6349;BME280;3207;42.648;23.406;2023-06-14T16:19:30;99595.81;;;26.79;nan
6349;BME280;3207;42.648;23.406;2023-06-14T16:21:57;99603.25;;;26.77;nan
6349;BME280;3207;42.648;23.406;2023-06-14T16:24:24;99602.16;;;26.67;nan
6349;BME280;3207;42.648;23.406;2023-06-14T16:26:51;99604.13;;;26.71;nan
6349;BME280;3207;42.648;23.406;2023-06-14T16:29:19;99614.41;;;26.74;nan
6349;BME280;3207;42.648;23.406;2023-06-14T16:31:46;99604.41;;;26.81;nan
6349;BME280;3207;42.648;23.406;2023-06-14T16:34:13;99614.31;;;26.81;nan
6349;BME280;3207;42.648;23.406;2023-06-14T16:36:42;99614.31;;;26.81;nan
6349;BME280;3207;42.648;23.406;2023-06-14T16:39:09;99618.38;;;26.72;nan
6349;BME280;3207;42.648;23.406;2023-06-14T16:41:36;99584.13;;;26.55;nan
6349;BME280;3207;42.648;23.406;2023-06-14T16:44:03;99638.72;;;26.79;nan
6349;BME280;3207;42.648;23.406;2023-06-14T16:46:31;99621.66;;;26.74;nan
6349;BME280;3207;42.648;23.406;2023-06-14T16:48:58;99619.66;;;26.51;nan
6349;BME280;3207;42.648;23.406;2023-06-14T16:51:26;99615.94;;;26.52;nan
6349;BME280;3207;42.648;23.406;2023-06-14T16:53:54;99627.84;;;26.56;nan
6349;BME280;3207;42.648;23.406;2023-06-14T16:56:22;99622.81;;;26.48;nan
6349;BME280;3207;42.648;23.406;2023-06-14T16:58:52;99635.31;;;26.54;nan
6349;BME280;3207;42.648;23.406;2023-06-14T17:01:19;99632.47;;;26.49;nan
6349;BME280;3207;42.648;23.406;2023-06-14T17:03:46;99644.53;;;26.40;nan
6349;BME280;3207;42.648;23.406;2023-06-14T17:06:12;99644.31;;;26.41;nan
6349;BME280;3207;42.648;23.406;2023-06-14T17:08:40;99658.84;;;26.34;nan
6349;BME280;3207;42.648;23.406;2023-06-14T17:11:08;99669.25;;;26.17;nan
6349;BME280;3207;42.648;23.406;2023-06-14T17:13:35;99664.41;;;26.07;nan
6349;BME280;3207;42.648;23.406;2023-06-14T17:16:02;99666.63;;;25.92;nan
6349;BME280;3207;42.648;23.406;2023-06-14T17:18:32;99658.91;;;26.02;nan
6349;BME280;3207;42.648;23.406;2023-06-14T17:20:59;99648.69;;;25.93;nan
6349;BME280;3207;42.648;23.406;2023-06-14T17:23:26;99662.59;;;25.83;nan
6349;BME280;3207;42.648;23.406;2023-06-14T17:25:53;99658.88;;;25.84;nan
6349;BME280;3207;42.648;23.406;2023-06-14T17:28:21;99664.38;;;25.89;nan
6349;BME280;3207;42.648;23.406;2023-06-14T17:30:49;99663.94;;;25.92;nan
6349;BME280;3207;42.648;23.406;2023-06-14T17:33:16;99659.72;;;25.78;nan
6349;BME280;3207;42.648;23.406;2023-06-14T17:35:43;99668.16;;;25.81;nan
6349;BME280;3207;42.648;23.406;2023-06-14T17:38:10;99668.66;;;25.72;nan
6349;BME280;3207;42.648;23.406;2023-06-14T17:40:37;99665.31;;;25.76;nan
6349;BME280;3207;42.648;23.406;2023-06-14T17:43:04;99675.31;;;25.63;nan
6349;BME280;3207;42.648;23.406;2023-06-14T17:45:32;99664.00;;;25.61;nan
6349;BME280;3207;42.648;23.406;2023-06-14T17:48:00;99681.03;;;25.66;nan
6349;BME280;3207;42.648;23.406;2023-06-14T17:50:27;99674.06;;;25.59;nan
6349;BME280;3207;42.648;23.406;2023-06-14T17:52:55;99672.34;;;25.39;nan
6349;BME280;3207;42.648;23.406;2023-06-14T17:55:22;99683.41;;;25.49;nan
6349;BME280;3207;42.648;23.406;2023-06-14T17:57:49;99679.34;;;25.40;nan
6349;BME280;3207;42.648;23.406;2023-06-14T18:00:17;99679.56;;;25.32;nan
6349;BME280;3207;42.648;23.406;2023-06-14T18:02:45;99682.44;;;25.37;nan
6349;BME280;3207;42.648;23.406;2023-06-14T18:05:14;99731.91;;;25.28;nan
6349;BME280;3207;42.648;23.406;2023-06-14T18:07:40;99693.56;;;25.34;nan
6349;BME280;3207;42.648;23.406;2023-06-14T18:10:07;99692.03;;;25.13;nan
6349;BME280;3207;42.648;23.406;2023-06-14T18:12:34;99696.44;;;24.95;nan
6349;BME280;3207;42.648;23.406;2023-06-14T18:15:04;99695.84;;;24.93;nan
6349;BME280;3207;42.648;23.406;2023-06-14T18:17:31;99692.16;;;24.80;nan
6349;BME280;3207;42.648;23.406;2023-06-14T18:19:59;99704.53;;;24.75;nan
6349;BME280;3207;42.648;23.406;2023-06-14T18:22:27;99704.09;;;24.71;nan
6349;BME280;3207;42.648;23.406;2023-06-14T18:24:54;99711.13;;;24.59;nan
6349;BME280;3207;42.648;23.406;2023-06-14T18:27:23;99706.66;;;24.40;nan
6349;BME280;3207;42.648;23.406;2023-06-14T18:29:50;99712.84;;;24.34;nan
6349;BME280;3207;42.648;23.406;2023-06-14T18:32:17;99714.69;;;24.14;nan
6349;BME280;3207;42.648;23.406;2023-06-14T18:34:44;99717.13;;;24.08;nan
6349;BME280;3207;42.648;23.406;2023-06-14T18:37:12;99721.47;;;24.09;nan
6349;BME280;3207;42.648;23.406;2023-06-14T18:42:06;99720.22;;;23.86;nan
6349;BME280;3207;42.648;23.406;2023-06-14T18:44:33;99729.44;;;23.77;nan
6349;BME280;3207;42.648;23.406;2023-06-14T18:47:03;99733.34;;;23.61;nan
6349;BME280;3207;42.648;23.406;2023-06-14T18:49:30;99724.25;;;23.49;nan
6349;BME280;3207;42.648;23.406;2023-06-14T18:51:57;99737.78;;;23.47;nan
6349;BME280;3207;42.648;23.406;2023-06-14T18:54:25;99740.66;;;23.46;nan
6349;BME280;3207;42.648;23.406;2023-06-14T18:56:52;99733.84;;;23.36;nan
6349;BME280;3207;42.648;23.406;2023-06-14T18:59:19;99748.84;;;23.38;nan
6349;BME280;3207;42.648;23.406;2023-06-14T19:01:46;99750.63;;;23.17;nan
6349;BME280;3207;42.648;23.406;2023-06-14T19:04:12;99756.59;;;23.19;nan
6349;BME280;3207;42.648;23.406;2023-06-14T19:06:39;99754.69;;;23.13;nan
6349;BME280;3207;42.648;23.406;2023-06-14T19:09:06;99757.06;;;22.95;nan
6349;BME280;3207;42.648;23.406;2023-06-14T19:11:34;99760.13;;;22.92;nan
6349;BME280;3207;42.648;23.406;2023-06-14T19:14:01;99749.81;;;22.82;nan
6349;BME280;3207;42.648;23.406;2023-06-14T19:16:28;99757.25;;;22.87;nan
6349;BME280;3207;42.648;23.406;2023-06-14T19:18:55;99757.97;;;22.74;nan
6349;BME280;3207;42.648;23.406;2023-06-14T19:21:22;99766.16;;;22.73;nan
6349;BME280;3207;42.648;23.406;2023-06-14T19:23:48;99765.09;;;22.67;nan
6349;BME280;3207;42.648;23.406;2023-06-14T19:26:15;99769.00;;;22.71;nan
6349;BME280;3207;42.648;23.406;2023-06-14T19:28:43;99763.59;;;22.58;nan
6349;BME280;3207;42.648;23.406;2023-06-14T19:31:11;99772.19;;;22.53;nan
6349;BME280;3207;42.648;23.406;2023-06-14T19:33:37;99785.34;;;22.61;nan
6349;BME280;3207;42.648;23.406;2023-06-14T19:36:04;99779.63;;;22.64;nan
6349;BME280;3207;42.648;23.406;2023-06-14T19:38:31;99784.47;;;22.54;nan
6349;BME280;3207;42.648;23.406;2023-06-14T19:40:58;99790.16;;;22.45;nan
6349;BME280;3207;42.648;23.406;2023-06-14T19:43:25;99794.59;;;22.38;nan
6349;BME280;3207;42.648;23.406;2023-06-14T19:45:53;99788.50;;;22.44;nan
6349;BME280;3207;42.648;23.406;2023-06-14T19:50:47;99791.00;;;22.52;nan